sensor_id;sensor_type;location;lat;lon;timestamp;temperature;humidity
1165;DHT22;571;50.930;6.926;2023-05-24T02:47:51;11.70;92.20
1165;DHT22;571;50.930;6.926;2023-05-24T02:50:27;11.70;91.60
1165;DHT22;571;50.930;6.926;2023-05-24T02:53:28;11.70;91.70
1165;DHT22;571;50.930;6.926;2023-05-24T02:56:02;11.70;92.10
1165;DHT22;571;50.930;6.926;2023-05-24T02:58:35;11.60;92.40
1165;DHT22;571;50.930;6.926;2023-05-24T03:01:26;11.60;92.60
1165;DHT22;571;50.930;6.926;2023-05-24T03:04:09;11.60;92.80
1165;DHT22;571;50.930;6.926;2023-05-24T03:06:44;11.60;92.80
1165;DHT22;571;50.930;6.926;2023-05-24T03:09:20;11.50;92.70
1165;DHT22;571;50.930;6.926;2023-05-24T03:12:12;11.50;93.00
1165;DHT22;571;50.930;6.926;2023-05-24T03:14:46;11.50;93.00
1165;DHT22;571;50.930;6.926;2023-05-24T03:17:20;11.50;93.10
1165;DHT22;571;50.930;6.926;2023-05-24T03:19:57;11.50;93.20
1165;DHT22;571;50.930;6.926;2023-05-24T03:22:25;11.40;93.30
1165;DHT22;571;50.930;6.926;2023-05-24T03:24:58;11.40;93.50
1165;DHT22;571;50.930;6.926;2023-05-24T03:27:30;11.40;93.80
1165;DHT22;571;50.930;6.926;2023-05-24T03:30:21;11.30;93.80
1165;DHT22;571;50.930;6.926;2023-05-24T03:32:58;11.40;94.00
1165;DHT22;571;50.930;6.926;2023-05-24T03:35:40;11.30;93.90
1165;DHT22;571;50.930;6.926;2023-05-24T03:38:18;11.30;94.00
1165;DHT22;571;50.930;6.926;2023-05-24T03:40:51;11.30;94.10
1165;DHT22;571;50.930;6.926;2023-05-24T03:43:23;11.30;94.30
1165;DHT22;571;50.930;6.926;2023-05-24T03:46:00;11.20;94.20
1165;DHT22;571;50.930;6.926;2023-05-24T03:48:48;11.20;94.20
1165;DHT22;571;50.930;6.926;2023-05-24T03:51:37;11.20;94.30
1165;DHT22;571;50.930;6.926;2023-05-24T03:54:19;11.20;94.40
1165;DHT22;571;50.930;6.926;2023-05-24T03:56:51;11.20;94.60
1165;DHT22;571;50.930;6.926;2023-05-24T03:59:23;11.10;94.80
1165;DHT22;571;50.930;6.926;2023-05-24T04:01:53;11.10;94.90
1165;DHT22;571;50.930;6.926;2023-05-24T04:04:34;11.20;95.10
1165;DHT22;571;50.930;6.926;2023-05-24T04:07:28;11.20;94.90
1165;DHT22;571;50.930;6.926;2023-05-24T04:10:16;11.20;94.30
1165;DHT22;571;50.930;6.926;2023-05-24T04:12:50;11.20;94.40
1165;DHT22;571;50.930;6.926;2023-05-24T04:15:37;11.10;94.30
1165;DHT22;571;50.930;6.926;2023-05-24T04:18:23;11.20;94.50
1165;DHT22;571;50.930;6.926;2023-05-24T04:21:10;11.20;94.80
1165;DHT22;571;50.930;6.926;2023-05-24T04:24:01;11.20;94.70
1165;DHT22;571;50.930;6.926;2023-05-24T04:26:57;11.30;94.90
1165;DHT22;571;50.930;6.926;2023-05-24T04:29:32;11.30;94.60
1165;DHT22;571;50.930;6.926;2023-05-24T04:32:06;11.30;94.20
1165;DHT22;571;50.930;6.926;2023-05-24T04:34:52;11.40;94.40
1165;DHT22;571;50.930;6.926;2023-05-24T04:37:29;11.40;94.60
1165;DHT22;571;50.930;6.926;2023-05-24T04:40:20;11.30;94.40
1165;DHT22;571;50.930;6.926;2023-05-24T04:43:01;11.30;94.60
1165;DHT22;571;50.930;6.926;2023-05-24T04:48:57;11.40;94.50
1165;DHT22;571;50.930;6.926;2023-05-24T04:51:50;11.40;94.80
1165;DHT22;571;50.930;6.926;2023-05-24T04:54:20;11.40;95.10
1165;DHT22;571;50.930;6.926;2023-05-24T04:56:55;11.40;94.90
1165;DHT22;571;50.930;6.926;2023-05-24T04:59:24;11.40;95.10
1165;DHT22;571;50.930;6.926;2023-05-24T05:02:01;11.40;95.00
1165;DHT22;571;50.930;6.926;2023-05-24T05:04:40;11.40;95.10
1165;DHT22;571;50.930;6.926;2023-05-24T05:07:25;11.40;95.30
1165;DHT22;571;50.930;6.926;2023-05-24T05:10:04;11.50;94.70
1165;DHT22;571;50.930;6.926;2023-05-24T05:12:43;11.50;94.50
1165;DHT22;571;50.930;6.926;2023-05-24T05:15:30;11.60;94.90
1165;DHT22;571;50.930;6.926;2023-05-24T05:18:31;11.60;95.10
1165;DHT22;571;50.930;6.926;2023-05-24T05:21:28;11.60;95.30
1165;DHT22;571;50.930;6.926;2023-05-24T05:27:31;11.80;94.30
1165;DHT22;571;50.930;6.926;2023-05-24T05:30:20;11.80;94.10
1165;DHT22;571;50.930;6.926;2023-05-24T05:33:36;11.80;94.00
1165;DHT22;571;50.930;6.926;2023-05-24T05:36:42;11.80;94.60
1165;DHT22;571;50.930;6.926;2023-05-24T05:39:19;11.80;94.40
1165;DHT22;571;50.930;6.926;2023-05-24T05:42:00;11.90;94.20
1165;DHT22;571;50.930;6.926;2023-05-24T05:44:37;12.00;94.30
1165;DHT22;571;50.930;6.926;2023-05-24T05:47:50;12.00;94.00
1165;DHT22;571;50.930;6.926;2023-05-24T05:53:35;12.10;94.00
1165;DHT22;571;50.930;6.926;2023-05-24T05:56:23;12.20;94.50
1165;DHT22;571;50.930;6.926;2023-05-24T05:59:19;12.30;94.50
1165;DHT22;571;50.930;6.926;2023-05-24T06:02:07;12.30;94.90
1165;DHT22;571;50.930;6.926;2023-05-24T06:05:06;12.40;94.10
1165;DHT22;571;50.930;6.926;2023-05-24T06:08:03;12.40;94.40
1165;DHT22;571;50.930;6.926;2023-05-24T06:14:28;12.50;94.60
1165;DHT22;571;50.930;6.926;2023-05-24T06:17:29;12.50;94.20
1165;DHT22;571;50.930;6.926;2023-05-24T06:23:35;12.70;93.40
1165;DHT22;571;50.930;6.926;2023-05-24T06:26:58;12.60;93.60
1165;DHT22;571;50.930;6.926;2023-05-24T06:30:01;12.60;93.60
1165;DHT22;571;50.930;6.926;2023-05-24T06:33:00;12.70;94.10
1165;DHT22;571;50.930;6.926;2023-05-24T06:35:58;12.80;93.30
1165;DHT22;571;50.930;6.926;2023-05-24T06:38:41;12.80;93.40
1165;DHT22;571;50.930;6.926;2023-05-24T06:41:27;12.90;93.50
1165;DHT22;571;50.930;6.926;2023-05-24T06:44:23;13.00;94.10
1165;DHT22;571;50.930;6.926;2023-05-24T06:47:27;13.00;93.90
1165;DHT22;571;50.930;6.926;2023-05-24T06:53:28;13.10;92.80
1165;DHT22;571;50.930;6.926;2023-05-24T06:56:27;13.30;93.30
1165;DHT22;571;50.930;6.926;2023-05-24T07:05:26;13.60;92.50
1165;DHT22;571;50.930;6.926;2023-05-24T07:45:54;14.40;86.90
1165;DHT22;571;50.930;6.926;2023-05-24T08:03:24;14.90;86.40
1165;DHT22;571;50.930;6.926;2023-05-24T08:12:09;15.20;86.90
1165;DHT22;571;50.930;6.926;2023-05-24T08:16:38;15.20;84.20
1165;DHT22;571;50.930;6.926;2023-05-24T08:27:25;15.10;84.40
1165;DHT22;571;50.930;6.926;2023-05-24T08:30:24;15.10;83.50
1165;DHT22;571;50.930;6.926;2023-05-24T08:33:34;15.10;83.80
1165;DHT22;571;50.930;6.926;2023-05-24T08:36:35;15.10;83.40
1165;DHT22;571;50.930;6.926;2023-05-24T08:40:14;15.00;85.10
1165;DHT22;571;50.930;6.926;2023-05-24T09:15:13;15.70;82.40
1165;DHT22;571;50.930;6.926;2023-05-24T09:18:26;15.80;82.60
1165;DHT22;571;50.930;6.926;2023-05-24T09:21:12;15.80;81.60
1165;DHT22;571;50.930;6.926;2023-05-24T09:51:23;16.50;79.30
1165;DHT22;571;50.930;6.926;2023-05-24T10:05:47;16.30;75.30
1165;DHT22;571;50.930;6.926;2023-05-24T10:23:25;16.40;78.70
1165;DHT22;571;50.930;6.926;2023-05-24T11:36:45;18.50;72.00
1165;DHT22;571;50.930;6.926;2023-05-24T11:40:14;18.60;67.20
1165;DHT22;571;50.930;6.926;2023-05-24T11:46:45;18.60;68.50
1165;DHT22;571;50.930;6.926;2023-05-24T11:49:57;18.50;69.50
1165;DHT22;571;50.930;6.926;2023-05-24T11:53:08;18.50;69.30
1165;DHT22;571;50.930;6.926;2023-05-24T11:56:01;18.40;68.50
1165;DHT22;571;50.930;6.926;2023-05-24T11:59:00;18.30;68.00
1165;DHT22;571;50.930;6.926;2023-05-24T12:01:40;18.10;70.90
1165;DHT22;571;50.930;6.926;2023-05-24T12:04:50;18.00;71.40
1165;DHT22;571;50.930;6.926;2023-05-24T12:09:17;17.90;70.00
1165;DHT22;571;50.930;6.926;2023-05-24T14:11:11;19.50;62.80
1165;DHT22;571;50.930;6.926;2023-05-24T15:07:31;25.00;57.70
1165;DHT22;571;50.930;6.926;2023-05-24T15:10:04;25.70;52.60
1165;DHT22;571;50.930;6.926;2023-05-24T15:12:31;25.80;48.60
1165;DHT22;571;50.930;6.926;2023-05-24T15:15:06;25.80;47.80
1165;DHT22;571;50.930;6.926;2023-05-24T15:17:36;25.40;46.50
1165;DHT22;571;50.930;6.926;2023-05-24T15:20:08;24.80;48.00
1165;DHT22;571;50.930;6.926;2023-05-24T15:22:44;24.20;49.50
1165;DHT22;571;50.930;6.926;2023-05-24T15:25:33;23.60;48.90
1165;DHT22;571;50.930;6.926;2023-05-24T15:28:08;23.10;52.80
1165;DHT22;571;50.930;6.926;2023-05-24T15:30:39;22.70;51.80
1165;DHT22;571;50.930;6.926;2023-05-24T15:33:11;22.70;52.10
1165;DHT22;571;50.930;6.926;2023-05-24T15:35:43;22.40;50.60
1165;DHT22;571;50.930;6.926;2023-05-24T15:38:12;22.00;49.00
1165;DHT22;571;50.930;6.926;2023-05-24T15:40:47;21.60;50.30
1165;DHT22;571;50.930;6.926;2023-05-24T16:48:21;18.60;62.90
1165;DHT22;571;50.930;6.926;2023-05-24T17:08:18;18.20;64.50
1165;DHT22;571;50.930;6.926;2023-05-24T17:11:08;18.20;67.50
1165;DHT22;571;50.930;6.926;2023-05-24T17:14:21;18.20;65.80
1165;DHT22;571;50.930;6.926;2023-05-24T17:17:08;18.20;66.40
1165;DHT22;571;50.930;6.926;2023-05-24T17:19:35;18.10;66.00
1165;DHT22;571;50.930;6.926;2023-05-24T17:22:11;18.10;65.50
1165;DHT22;571;50.930;6.926;2023-05-24T17:24:39;18.10;66.60
1165;DHT22;571;50.930;6.926;2023-05-24T17:27:06;18.10;66.20
1165;DHT22;571;50.930;6.926;2023-05-24T17:29:33;18.10;67.00
1165;DHT22;571;50.930;6.926;2023-05-24T17:31:59;18.20;67.50
1165;DHT22;571;50.930;6.926;2023-05-24T17:34:29;18.20;66.30
1165;DHT22;571;50.930;6.926;2023-05-24T17:37:01;18.10;66.70
1165;DHT22;571;50.930;6.926;2023-05-24T17:39:28;18.20;68.60
1165;DHT22;571;50.930;6.926;2023-05-24T17:41:56;18.20;68.10
1165;DHT22;571;50.930;6.926;2023-05-24T17:44:26;18.30;69.00
1165;DHT22;571;50.930;6.926;2023-05-24T17:46:52;18.30;70.00
1165;DHT22;571;50.930;6.926;2023-05-24T17:49:27;18.40;67.40
1165;DHT22;571;50.930;6.926;2023-05-24T17:52:03;18.40;67.90
1165;DHT22;571;50.930;6.926;2023-05-24T17:54:31;18.40;67.60
1165;DHT22;571;50.930;6.926;2023-05-24T17:56:59;18.40;67.20
1165;DHT22;571;50.930;6.926;2023-05-24T17:59:27;18.40;67.70
1165;DHT22;571;50.930;6.926;2023-05-24T18:01:54;18.30;68.20
1165;DHT22;571;50.930;6.926;2023-05-24T18:04:20;18.30;67.70
1165;DHT22;571;50.930;6.926;2023-05-24T18:06:47;18.30;68.20
1165;DHT22;571;50.930;6.926;2023-05-24T18:09:16;18.20;68.30
1165;DHT22;571;50.930;6.926;2023-05-24T18:11:43;18.20;69.20
1165;DHT22;571;50.930;6.926;2023-05-24T18:14:12;18.20;69.30
1165;DHT22;571;50.930;6.926;2023-05-24T18:16:39;18.20;70.50
1165;DHT22;571;50.930;6.926;2023-05-24T18:19:05;18.10;70.40
1165;DHT22;571;50.930;6.926;2023-05-24T18:21:32;18.00;70.30
1165;DHT22;571;50.930;6.926;2023-05-24T18:23:59;18.00;71.60
1165;DHT22;571;50.930;6.926;2023-05-24T18:26:26;18.00;70.80
1165;DHT22;571;50.930;6.926;2023-05-24T18:28:55;18.00;70.10
1165;DHT22;571;50.930;6.926;2023-05-24T18:31:23;18.00;71.10
1165;DHT22;571;50.930;6.926;2023-05-24T18:33:53;17.90;70.20
1165;DHT22;571;50.930;6.926;2023-05-24T18:36:20;17.90;71.50
1165;DHT22;571;50.930;6.926;2023-05-24T18:38:47;17.90;72.70
1165;DHT22;571;50.930;6.926;2023-05-24T18:41:14;17.90;73.40
1165;DHT22;571;50.930;6.926;2023-05-24T18:43:42;17.80;73.70
1165;DHT22;571;50.930;6.926;2023-05-24T18:46:09;17.80;73.30
1165;DHT22;571;50.930;6.926;2023-05-24T18:48:45;17.80;73.20
1165;DHT22;571;50.930;6.926;2023-05-24T18:51:14;17.70;72.40
1165;DHT22;571;50.930;6.926;2023-05-24T18:53:43;17.70;72.90
1165;DHT22;571;50.930;6.926;2023-05-24T18:56:13;17.60;71.10
1165;DHT22;571;50.930;6.926;2023-05-24T18:58:42;17.60;72.00
1165;DHT22;571;50.930;6.926;2023-05-24T19:01:16;17.50;72.90
1165;DHT22;571;50.930;6.926;2023-05-24T19:03:47;17.50;73.00
1165;DHT22;571;50.930;6.926;2023-05-24T19:06:15;17.40;73.90
1165;DHT22;571;50.930;6.926;2023-05-24T19:08:41;17.40;74.10
1165;DHT22;571;50.930;6.926;2023-05-24T19:11:11;17.40;75.30
1165;DHT22;571;50.930;6.926;2023-05-24T19:13:38;17.40;75.90
1165;DHT22;571;50.930;6.926;2023-05-24T19:16:05;17.30;76.10
1165;DHT22;571;50.930;6.926;2023-05-24T19:18:32;17.30;76.10
1165;DHT22;571;50.930;6.926;2023-05-24T19:21:08;17.20;76.10
1165;DHT22;571;50.930;6.926;2023-05-24T19:23:39;17.20;76.20
1165;DHT22;571;50.930;6.926;2023-05-24T19:26:15;17.20;75.70
1165;DHT22;571;50.930;6.926;2023-05-24T19:28:43;17.10;75.80
1165;DHT22;571;50.930;6.926;2023-05-24T19:31:15;17.10;75.00
1165;DHT22;571;50.930;6.926;2023-05-24T19:33:44;17.10;75.20
1165;DHT22;571;50.930;6.926;2023-05-24T19:36:15;17.00;76.00
1165;DHT22;571;50.930;6.926;2023-05-24T19:38:42;17.00;76.30
1165;DHT22;571;50.930;6.926;2023-05-24T19:41:09;17.00;76.90
1165;DHT22;571;50.930;6.926;2023-05-24T19:43:38;16.90;77.00
1165;DHT22;571;50.930;6.926;2023-05-24T19:46:05;16.90;78.30
1165;DHT22;571;50.930;6.926;2023-05-24T19:48:32;16.90;79.10
1165;DHT22;571;50.930;6.926;2023-05-24T19:50:59;16.90;80.10
1165;DHT22;571;50.930;6.926;2023-05-24T19:53:27;16.80;80.00
1165;DHT22;571;50.930;6.926;2023-05-24T19:55:56;16.80;79.40
1165;DHT22;571;50.930;6.926;2023-05-24T19:58:23;16.70;79.30
1165;DHT22;571;50.930;6.926;2023-05-24T20:00:51;16.70;79.40
1165;DHT22;571;50.930;6.926;2023-05-24T20:03:17;16.60;79.90
1165;DHT22;571;50.930;6.926;2023-05-24T20:05:44;16.70;80.60
1165;DHT22;571;50.930;6.926;2023-05-24T20:08:11;16.60;80.70
1165;DHT22;571;50.930;6.926;2023-05-24T20:10:39;16.60;79.90
1165;DHT22;571;50.930;6.926;2023-05-24T20:13:06;16.60;80.10
1165;DHT22;571;50.930;6.926;2023-05-24T20:15:33;16.60;79.60
1165;DHT22;571;50.930;6.926;2023-05-24T20:17:59;16.50;80.20
1165;DHT22;571;50.930;6.926;2023-05-24T20:20:26;16.50;80.30
1165;DHT22;571;50.930;6.926;2023-05-24T20:22:53;16.50;79.90
1165;DHT22;571;50.930;6.926;2023-05-24T20:25:20;16.40;79.70
1165;DHT22;571;50.930;6.926;2023-05-24T20:27:48;16.40;79.60
1165;DHT22;571;50.930;6.926;2023-05-24T20:30:16;16.30;80.20
1165;DHT22;571;50.930;6.926;2023-05-24T20:32:43;16.30;80.70
1165;DHT22;571;50.930;6.926;2023-05-24T20:35:10;16.30;81.70
1165;DHT22;571;50.930;6.926;2023-05-24T20:37:37;16.20;81.20
1165;DHT22;571;50.930;6.926;2023-05-24T20:40:06;16.20;81.50
1165;DHT22;571;50.930;6.926;2023-05-24T20:42:33;16.20;82.80
1165;DHT22;571;50.930;6.926;2023-05-24T20:45:01;16.10;82.20
1165;DHT22;571;50.930;6.926;2023-05-24T20:47:28;16.10;82.60
1165;DHT22;571;50.930;6.926;2023-05-24T20:49:55;16.00;82.80
1165;DHT22;571;50.930;6.926;2023-05-24T20:52:22;16.00;84.40
1165;DHT22;571;50.930;6.926;2023-05-24T20:54:48;16.00;84.40
1165;DHT22;571;50.930;6.926;2023-05-24T20:57:15;15.90;84.20
1165;DHT22;571;50.930;6.926;2023-05-24T20:59:42;15.90;84.80
1165;DHT22;571;50.930;6.926;2023-05-24T21:02:10;15.80;84.60
1165;DHT22;571;50.930;6.926;2023-05-24T21:04:36;15.80;85.50
1165;DHT22;571;50.930;6.926;2023-05-24T21:07:03;15.80;86.00
1165;DHT22;571;50.930;6.926;2023-05-24T21:09:30;15.70;86.30
1165;DHT22;571;50.930;6.926;2023-05-24T21:11:57;15.70;87.00
1165;DHT22;571;50.930;6.926;2023-05-24T21:14:23;15.60;86.90
1165;DHT22;571;50.930;6.926;2023-05-24T21:16:51;15.70;87.80
1165;DHT22;571;50.930;6.926;2023-05-24T21:19:19;15.60;87.70
1165;DHT22;571;50.930;6.926;2023-05-24T21:21:45;15.60;88.00
1165;DHT22;571;50.930;6.926;2023-05-24T21:24:12;15.60;88.80
1165;DHT22;571;50.930;6.926;2023-05-24T21:26:40;15.50;89.20
1165;DHT22;571;50.930;6.926;2023-05-24T21:29:09;15.50;89.70
1165;DHT22;571;50.930;6.926;2023-05-24T21:31:36;15.40;89.70
1165;DHT22;571;50.930;6.926;2023-05-24T21:34:03;15.40;90.10
1165;DHT22;571;50.930;6.926;2023-05-24T21:36:33;15.30;90.50
1165;DHT22;571;50.930;6.926;2023-05-24T21:39:02;15.30;90.70
1165;DHT22;571;50.930;6.926;2023-05-24T21:41:32;15.30;90.80
1165;DHT22;571;50.930;6.926;2023-05-24T21:43:59;15.20;90.90
1165;DHT22;571;50.930;6.926;2023-05-24T21:46:25;15.20;91.20
1165;DHT22;571;50.930;6.926;2023-05-24T21:48:53;15.10;91.10
1165;DHT22;571;50.930;6.926;2023-05-24T21:51:21;15.10;91.20
1165;DHT22;571;50.930;6.926;2023-05-24T21:53:49;15.00;91.10
1165;DHT22;571;50.930;6.926;2023-05-24T21:56:16;15.00;91.60
1165;DHT22;571;50.930;6.926;2023-05-24T21:58:43;14.90;91.40
1165;DHT22;571;50.930;6.926;2023-05-24T22:44:03;14.50;92.60
1165;DHT22;571;50.930;6.926;2023-05-24T22:50:29;14.40;92.90
1165;DHT22;571;50.930;6.926;2023-05-24T22:53:19;14.40;93.10
1165;DHT22;571;50.930;6.926;2023-05-24T23:20:19;14.10;93.70
1165;DHT22;571;50.930;6.926;2023-05-24T23:33:04;14.00;94.20
1165;DHT22;571;50.930;6.926;2023-05-24T23:36:19;13.90;94.10
1165;DHT22;571;50.930;6.926;2023-05-24T23:38:48;13.90;94.60
1165;DHT22;571;50.930;6.926;2023-05-24T23:57:55;13.70;94.60
